sensor_id;sensor_type;location;lat;lon;timestamp;P1;durP1;ratioP1;P2;durP2;ratioP2
5612;SDS011;63463;53.586;9.928;2023-09-07T00:01:39;11.80;;;8.40;;
5612;SDS011;63463;53.586;9.928;2023-09-07T00:04:05;10.80;;;7.80;;
5612;SDS011;63463;53.586;9.928;2023-09-07T00:06:31;9.53;;;7.57;;
5612;SDS011;63463;53.586;9.928;2023-09-07T00:08:57;9.50;;;7.90;;
5612;SDS011;63463;53.586;9.928;2023-09-07T00:11:23;9.30;;;8.30;;
5612;SDS011;63463;53.586;9.928;2023-09-07T00:13:49;8.47;;;7.67;;
5612;SDS011;63463;53.586;9.928;2023-09-07T00:16:15;9.17;;;7.97;;
5612;SDS011;63463;53.586;9.928;2023-09-07T00:18:41;9.03;;;8.13;;
5612;SDS011;63463;53.586;9.928;2023-09-07T00:21:09;17.20;;;7.33;;
5612;SDS011;63463;53.586;9.928;2023-09-07T00:23:35;14.90;;;8.30;;
5612;SDS011;63463;53.586;9.928;2023-09-07T00:26:01;9.73;;;8.17;;
5612;SDS011;63463;53.586;9.928;2023-09-07T00:28:27;16.13;;;8.40;;
5612;SDS011;63463;53.586;9.928;2023-09-07T00:30:53;8.33;;;7.43;;
5612;SDS011;63463;53.586;9.928;2023-09-07T00:33:20;9.73;;;7.90;;
5612;SDS011;63463;53.586;9.928;2023-09-07T00:35:46;8.10;;;7.30;;
5612;SDS011;63463;53.586;9.928;2023-09-07T00:38:15;7.77;;;6.97;;
5612;SDS011;63463;53.586;9.928;2023-09-07T00:40:44;8.37;;;7.40;;
5612;SDS011;63463;53.586;9.928;2023-09-07T00:43:11;10.30;;;8.10;;
5612;SDS011;63463;53.586;9.928;2023-09-07T00:45:38;11.20;;;7.57;;
5612;SDS011;63463;53.586;9.928;2023-09-07T00:48:04;9.10;;;8.20;;
5612;SDS011;63463;53.586;9.928;2023-09-07T00:50:30;13.13;;;7.30;;
5612;SDS011;63463;53.586;9.928;2023-09-07T00:52:57;8.87;;;7.97;;
5612;SDS011;63463;53.586;9.928;2023-09-07T00:55:27;8.90;;;8.00;;
5612;SDS011;63463;53.586;9.928;2023-09-07T00:57:54;11.00;;;7.30;;
5612;SDS011;63463;53.586;9.928;2023-09-07T01:00:20;12.80;;;7.70;;
5612;SDS011;63463;53.586;9.928;2023-09-07T01:02:46;9.70;;;7.70;;
5612;SDS011;63463;53.586;9.928;2023-09-07T01:05:12;9.40;;;8.30;;
5612;SDS011;63463;53.586;9.928;2023-09-07T01:07:46;9.27;;;8.07;;
5612;SDS011;63463;53.586;9.928;2023-09-07T01:10:13;9.63;;;7.33;;
5612;SDS011;63463;53.586;9.928;2023-09-07T01:12:39;8.87;;;7.93;;
5612;SDS011;63463;53.586;9.928;2023-09-07T01:15:06;14.23;;;8.00;;
5612;SDS011;63463;53.586;9.928;2023-09-07T01:17:32;10.93;;;8.17;;
5612;SDS011;63463;53.586;9.928;2023-09-07T01:19:59;9.03;;;7.93;;
5612;SDS011;63463;53.586;9.928;2023-09-07T01:22:30;11.83;;;7.80;;
5612;SDS011;63463;53.586;9.928;2023-09-07T01:24:57;11.70;;;7.43;;
5612;SDS011;63463;53.586;9.928;2023-09-07T01:27:25;8.73;;;7.37;;
5612;SDS011;63463;53.586;9.928;2023-09-07T01:29:53;13.00;;;8.87;;
5612;SDS011;63463;53.586;9.928;2023-09-07T01:32:20;9.63;;;8.73;;
5612;SDS011;63463;53.586;9.928;2023-09-07T01:34:46;8.13;;;7.33;;
5612;SDS011;63463;53.586;9.928;2023-09-07T01:37:13;11.53;;;8.07;;
5612;SDS011;63463;53.586;9.928;2023-09-07T01:39:39;9.37;;;8.40;;
5612;SDS011;63463;53.586;9.928;2023-09-07T01:42:05;9.57;;;8.40;;
5612;SDS011;63463;53.586;9.928;2023-09-07T01:44:31;10.37;;;8.00;;
5612;SDS011;63463;53.586;9.928;2023-09-07T01:46:57;10.73;;;7.73;;
5612;SDS011;63463;53.586;9.928;2023-09-07T01:49:23;12.53;;;8.30;;
5612;SDS011;63463;53.586;9.928;2023-09-07T01:51:50;8.67;;;7.87;;
5612;SDS011;63463;53.586;9.928;2023-09-07T01:54:18;12.67;;;8.80;;
5612;SDS011;63463;53.586;9.928;2023-09-07T01:56:44;9.27;;;8.37;;
5612;SDS011;63463;53.586;9.928;2023-09-07T01:59:10;9.33;;;8.43;;
5612;SDS011;63463;53.586;9.928;2023-09-07T02:01:36;9.33;;;7.67;;
5612;SDS011;63463;53.586;9.928;2023-09-07T02:04:04;8.53;;;7.73;;
5612;SDS011;63463;53.586;9.928;2023-09-07T02:06:30;9.20;;;7.50;;
5612;SDS011;63463;53.586;9.928;2023-09-07T02:08:56;9.57;;;7.60;;
5612;SDS011;63463;53.586;9.928;2023-09-07T02:11:22;9.63;;;8.23;;
5612;SDS011;63463;53.586;9.928;2023-09-07T02:13:49;9.43;;;7.83;;
5612;SDS011;63463;53.586;9.928;2023-09-07T02:16:16;8.63;;;7.90;;
5612;SDS011;63463;53.586;9.928;2023-09-07T02:18:44;11.30;;;7.47;;
5612;SDS011;63463;53.586;9.928;2023-09-07T02:21:11;12.87;;;7.93;;
5612;SDS011;63463;53.586;9.928;2023-09-07T02:23:38;8.50;;;7.70;;
5612;SDS011;63463;53.586;9.928;2023-09-07T02:26:04;10.90;;;8.03;;
5612;SDS011;63463;53.586;9.928;2023-09-07T02:28:30;16.23;;;8.10;;
5612;SDS011;63463;53.586;9.928;2023-09-07T02:31:05;8.80;;;8.00;;
5612;SDS011;63463;53.586;9.928;2023-09-07T02:33:32;9.10;;;8.20;;
5612;SDS011;63463;53.586;9.928;2023-09-07T02:35:58;10.17;;;7.97;;
5612;SDS011;63463;53.586;9.928;2023-09-07T02:38:24;9.87;;;8.80;;
5612;SDS011;63463;53.586;9.928;2023-09-07T02:40:50;11.07;;;8.23;;
5612;SDS011;63463;53.586;9.928;2023-09-07T02:43:16;9.60;;;8.37;;
5612;SDS011;63463;53.586;9.928;2023-09-07T02:45:42;10.33;;;8.10;;
5612;SDS011;63463;53.586;9.928;2023-09-07T02:48:09;9.47;;;8.63;;
5612;SDS011;63463;53.586;9.928;2023-09-07T02:50:35;11.83;;;8.33;;
5612;SDS011;63463;53.586;9.928;2023-09-07T02:53:01;10.30;;;8.27;;
5612;SDS011;63463;53.586;9.928;2023-09-07T02:55:29;9.77;;;7.80;;
5612;SDS011;63463;53.586;9.928;2023-09-07T02:57:58;9.13;;;7.73;;
5612;SDS011;63463;53.586;9.928;2023-09-07T03:00:24;12.37;;;9.37;;
5612;SDS011;63463;53.586;9.928;2023-09-07T03:02:51;10.80;;;9.10;;
5612;SDS011;63463;53.586;9.928;2023-09-07T03:05:17;12.87;;;8.97;;
5612;SDS011;63463;53.586;9.928;2023-09-07T03:07:44;9.40;;;8.50;;
5612;SDS011;63463;53.586;9.928;2023-09-07T03:10:11;11.90;;;8.70;;
5612;SDS011;63463;53.586;9.928;2023-09-07T03:12:37;9.50;;;8.60;;
5612;SDS011;63463;53.586;9.928;2023-09-07T03:15:03;13.73;;;9.97;;
5612;SDS011;63463;53.586;9.928;2023-09-07T03:17:29;10.57;;;9.37;;
5612;SDS011;63463;53.586;9.928;2023-09-07T03:19:55;10.40;;;9.30;;
5612;SDS011;63463;53.586;9.928;2023-09-07T03:22:24;11.77;;;10.47;;
5612;SDS011;63463;53.586;9.928;2023-09-07T03:24:51;11.70;;;9.30;;
5612;SDS011;63463;53.586;9.928;2023-09-07T03:27:17;14.53;;;9.40;;
5612;SDS011;63463;53.586;9.928;2023-09-07T03:29:46;18.20;;;10.27;;
5612;SDS011;63463;53.586;9.928;2023-09-07T03:32:12;12.00;;;10.33;;
5612;SDS011;63463;53.586;9.928;2023-09-07T03:34:38;12.83;;;11.43;;
5612;SDS011;63463;53.586;9.928;2023-09-07T03:37:04;17.40;;;10.63;;
5612;SDS011;63463;53.586;9.928;2023-09-07T03:39:31;13.40;;;11.03;;
5612;SDS011;63463;53.586;9.928;2023-09-07T03:41:57;12.10;;;9.73;;
5612;SDS011;63463;53.586;9.928;2023-09-07T03:44:23;12.40;;;11.00;;
5612;SDS011;63463;53.586;9.928;2023-09-07T03:46:49;12.40;;;11.07;;
5612;SDS011;63463;53.586;9.928;2023-09-07T03:49:15;16.93;;;10.60;;
5612;SDS011;63463;53.586;9.928;2023-09-07T03:51:41;14.70;;;11.60;;
5612;SDS011;63463;53.586;9.928;2023-09-07T03:54:07;14.83;;;10.80;;
5612;SDS011;63463;53.586;9.928;2023-09-07T03:56:33;13.20;;;11.53;;
5612;SDS011;63463;53.586;9.928;2023-09-07T03:58:59;20.73;;;10.77;;
5612;SDS011;63463;53.586;9.928;2023-09-07T04:01:25;13.60;;;10.37;;
5612;SDS011;63463;53.586;9.928;2023-09-07T04:03:51;15.30;;;11.27;;
5612;SDS011;63463;53.586;9.928;2023-09-07T04:06:17;13.77;;;11.63;;
5612;SDS011;63463;53.586;9.928;2023-09-07T04:08:43;15.83;;;11.23;;
5612;SDS011;63463;53.586;9.928;2023-09-07T04:11:09;16.47;;;11.57;;
5612;SDS011;63463;53.586;9.928;2023-09-07T04:13:35;13.90;;;11.67;;
5612;SDS011;63463;53.586;9.928;2023-09-07T04:16:01;22.40;;;11.73;;
5612;SDS011;63463;53.586;9.928;2023-09-07T04:18:27;16.47;;;11.53;;
5612;SDS011;63463;53.586;9.928;2023-09-07T04:20:56;14.83;;;11.40;;
5612;SDS011;63463;53.586;9.928;2023-09-07T04:23:29;21.83;;;11.07;;
5612;SDS011;63463;53.586;9.928;2023-09-07T04:26:03;13.47;;;11.60;;
5612;SDS011;63463;53.586;9.928;2023-09-07T04:28:29;14.33;;;11.40;;
5612;SDS011;63463;53.586;9.928;2023-09-07T04:30:55;17.80;;;11.93;;
5612;SDS011;63463;53.586;9.928;2023-09-07T04:33:21;13.60;;;11.17;;
5612;SDS011;63463;53.586;9.928;2023-09-07T04:35:47;15.10;;;12.00;;
5612;SDS011;63463;53.586;9.928;2023-09-07T04:38:13;17.10;;;12.57;;
5612;SDS011;63463;53.586;9.928;2023-09-07T04:40:40;13.90;;;11.17;;
5612;SDS011;63463;53.586;9.928;2023-09-07T04:43:06;17.00;;;12.90;;
5612;SDS011;63463;53.586;9.928;2023-09-07T04:45:33;17.77;;;12.37;;
5612;SDS011;63463;53.586;9.928;2023-09-07T04:48:00;14.23;;;12.50;;
5612;SDS011;63463;53.586;9.928;2023-09-07T04:50:26;13.23;;;11.83;;
5612;SDS011;63463;53.586;9.928;2023-09-07T04:52:52;15.50;;;12.90;;
5612;SDS011;63463;53.586;9.928;2023-09-07T04:55:18;16.47;;;12.90;;
5612;SDS011;63463;53.586;9.928;2023-09-07T04:57:44;13.83;;;12.33;;
5612;SDS011;63463;53.586;9.928;2023-09-07T05:00:10;18.87;;;13.83;;
5612;SDS011;63463;53.586;9.928;2023-09-07T05:02:36;14.57;;;12.63;;
5612;SDS011;63463;53.586;9.928;2023-09-07T05:05:07;14.97;;;12.97;;
5612;SDS011;63463;53.586;9.928;2023-09-07T05:07:33;22.87;;;13.07;;
5612;SDS011;63463;53.586;9.928;2023-09-07T05:09:59;16.13;;;13.63;;
5612;SDS011;63463;53.586;9.928;2023-09-07T05:12:26;15.90;;;13.33;;
5612;SDS011;63463;53.586;9.928;2023-09-07T05:14:52;16.93;;;13.63;;
5612;SDS011;63463;53.586;9.928;2023-09-07T05:17:18;19.80;;;13.27;;
5612;SDS011;63463;53.586;9.928;2023-09-07T05:19:44;15.67;;;13.87;;
5612;SDS011;63463;53.586;9.928;2023-09-07T05:22:10;17.13;;;14.13;;
5612;SDS011;63463;53.586;9.928;2023-09-07T05:24:39;18.07;;;14.37;;
5612;SDS011;63463;53.586;9.928;2023-09-07T05:27:06;19.80;;;13.87;;
5612;SDS011;63463;53.586;9.928;2023-09-07T05:29:32;17.60;;;13.20;;
5612;SDS011;63463;53.586;9.928;2023-09-07T05:31:58;17.50;;;12.63;;
5612;SDS011;63463;53.586;9.928;2023-09-07T05:34:24;21.50;;;13.27;;
5612;SDS011;63463;53.586;9.928;2023-09-07T05:36:50;18.00;;;13.70;;
5612;SDS011;63463;53.586;9.928;2023-09-07T05:39:16;18.57;;;14.30;;
5612;SDS011;63463;53.586;9.928;2023-09-07T05:41:42;18.40;;;13.13;;
5612;SDS011;63463;53.586;9.928;2023-09-07T05:44:08;17.50;;;12.57;;
5612;SDS011;63463;53.586;9.928;2023-09-07T05:46:34;17.13;;;13.20;;
5612;SDS011;63463;53.586;9.928;2023-09-07T05:49:00;19.00;;;12.77;;
5612;SDS011;63463;53.586;9.928;2023-09-07T05:51:30;14.10;;;12.43;;
5612;SDS011;63463;53.586;9.928;2023-09-07T05:53:56;19.60;;;13.67;;
5612;SDS011;63463;53.586;9.928;2023-09-07T05:56:22;14.23;;;12.03;;
5612;SDS011;63463;53.586;9.928;2023-09-07T05:58:48;17.13;;;12.50;;
5612;SDS011;63463;53.586;9.928;2023-09-07T06:01:14;13.77;;;11.87;;
5612;SDS011;63463;53.586;9.928;2023-09-07T06:03:40;20.03;;;12.80;;
5612;SDS011;63463;53.586;9.928;2023-09-07T06:06:06;13.23;;;11.23;;
5612;SDS011;63463;53.586;9.928;2023-09-07T06:08:32;19.03;;;12.07;;
5612;SDS011;63463;53.586;9.928;2023-09-07T06:10:58;19.80;;;11.67;;
5612;SDS011;63463;53.586;9.928;2023-09-07T06:13:24;19.67;;;11.57;;
5612;SDS011;63463;53.586;9.928;2023-09-07T06:15:50;14.03;;;11.47;;
5612;SDS011;63463;53.586;9.928;2023-09-07T06:18:17;14.20;;;10.40;;
5612;SDS011;63463;53.586;9.928;2023-09-07T06:20:43;12.40;;;9.80;;
5612;SDS011;63463;53.586;9.928;2023-09-07T06:23:09;10.67;;;9.43;;
5612;SDS011;63463;53.586;9.928;2023-09-07T06:25:35;12.27;;;10.70;;
5612;SDS011;63463;53.586;9.928;2023-09-07T06:28:01;11.00;;;9.90;;
5612;SDS011;63463;53.586;9.928;2023-09-07T06:30:30;10.00;;;8.97;;
5612;SDS011;63463;53.586;9.928;2023-09-07T06:32:57;13.47;;;9.80;;
5612;SDS011;63463;53.586;9.928;2023-09-07T06:35:23;10.93;;;9.30;;
5612;SDS011;63463;53.586;9.928;2023-09-07T06:37:49;12.93;;;9.70;;
5612;SDS011;63463;53.586;9.928;2023-09-07T06:40:18;16.73;;;9.30;;
5612;SDS011;63463;53.586;9.928;2023-09-07T06:42:44;14.17;;;9.87;;
5612;SDS011;63463;53.586;9.928;2023-09-07T06:45:10;13.80;;;9.50;;
5612;SDS011;63463;53.586;9.928;2023-09-07T06:47:36;15.03;;;9.57;;
5612;SDS011;63463;53.586;9.928;2023-09-07T06:50:03;13.17;;;9.43;;
5612;SDS011;63463;53.586;9.928;2023-09-07T06:52:30;9.83;;;8.90;;
5612;SDS011;63463;53.586;9.928;2023-09-07T06:54:56;10.20;;;9.20;;
5612;SDS011;63463;53.586;9.928;2023-09-07T06:57:22;9.97;;;8.77;;
5612;SDS011;63463;53.586;9.928;2023-09-07T06:59:50;9.20;;;8.40;;
5612;SDS011;63463;53.586;9.928;2023-09-07T07:02:16;11.13;;;8.70;;
5612;SDS011;63463;53.586;9.928;2023-09-07T07:04:45;9.03;;;8.20;;
5612;SDS011;63463;53.586;9.928;2023-09-07T07:07:11;11.10;;;9.00;;
5612;SDS011;63463;53.586;9.928;2023-09-07T07:09:37;12.53;;;8.30;;
5612;SDS011;63463;53.586;9.928;2023-09-07T07:12:03;13.30;;;8.37;;
5612;SDS011;63463;53.586;9.928;2023-09-07T07:14:29;13.93;;;7.60;;
5612;SDS011;63463;53.586;9.928;2023-09-07T07:16:56;13.90;;;8.13;;
5612;SDS011;63463;53.586;9.928;2023-09-07T07:19:23;11.10;;;8.80;;
5612;SDS011;63463;53.586;9.928;2023-09-07T07:21:49;12.03;;;8.60;;
5612;SDS011;63463;53.586;9.928;2023-09-07T07:24:15;10.07;;;8.93;;
5612;SDS011;63463;53.586;9.928;2023-09-07T07:26:42;15.23;;;8.43;;
5612;SDS011;63463;53.586;9.928;2023-09-07T07:29:08;10.13;;;8.30;;
5612;SDS011;63463;53.586;9.928;2023-09-07T07:31:34;11.93;;;8.47;;
5612;SDS011;63463;53.586;9.928;2023-09-07T07:34:01;14.37;;;7.60;;
5612;SDS011;63463;53.586;9.928;2023-09-07T07:36:27;9.57;;;7.70;;
5612;SDS011;63463;53.586;9.928;2023-09-07T07:38:53;10.30;;;6.93;;
5612;SDS011;63463;53.586;9.928;2023-09-07T07:41:19;10.30;;;7.43;;
5612;SDS011;63463;53.586;9.928;2023-09-07T07:43:45;9.67;;;7.37;;
5612;SDS011;63463;53.586;9.928;2023-09-07T07:46:11;7.90;;;6.87;;
5612;SDS011;63463;53.586;9.928;2023-09-07T07:48:40;8.20;;;7.43;;
5612;SDS011;63463;53.586;9.928;2023-09-07T07:51:06;10.00;;;6.73;;
5612;SDS011;63463;53.586;9.928;2023-09-07T07:53:34;8.60;;;6.60;;
5612;SDS011;63463;53.586;9.928;2023-09-07T07:56:00;16.93;;;7.03;;
5612;SDS011;63463;53.586;9.928;2023-09-07T07:58:26;7.50;;;6.20;;
5612;SDS011;63463;53.586;9.928;2023-09-07T08:00:52;6.87;;;6.00;;
5612;SDS011;63463;53.586;9.928;2023-09-07T08:03:18;8.27;;;6.63;;
5612;SDS011;63463;53.586;9.928;2023-09-07T08:05:45;7.23;;;6.53;;
5612;SDS011;63463;53.586;9.928;2023-09-07T08:08:11;8.07;;;6.87;;
5612;SDS011;63463;53.586;9.928;2023-09-07T08:10:37;6.90;;;6.20;;
5612;SDS011;63463;53.586;9.928;2023-09-07T08:13:03;7.23;;;6.40;;
5612;SDS011;63463;53.586;9.928;2023-09-07T08:15:29;7.17;;;6.47;;
5612;SDS011;63463;53.586;9.928;2023-09-07T08:17:58;14.53;;;6.70;;
5612;SDS011;63463;53.586;9.928;2023-09-07T08:20:25;6.50;;;5.80;;
5612;SDS011;63463;53.586;9.928;2023-09-07T08:22:51;13.43;;;6.73;;
5612;SDS011;63463;53.586;9.928;2023-09-07T08:25:17;12.63;;;6.00;;
5612;SDS011;63463;53.586;9.928;2023-09-07T08:27:44;8.75;;;6.13;;
5612;SDS011;63463;53.586;9.928;2023-09-07T08:30:15;7.40;;;6.10;;
5612;SDS011;63463;53.586;9.928;2023-09-07T08:32:43;9.40;;;6.43;;
5612;SDS011;63463;53.586;9.928;2023-09-07T08:35:13;8.68;;;5.65;;
5612;SDS011;63463;53.586;9.928;2023-09-07T08:37:40;7.65;;;5.57;;
5612;SDS011;63463;53.586;9.928;2023-09-07T08:40:06;9.20;;;5.32;;
5612;SDS011;63463;53.586;9.928;2023-09-07T08:42:35;9.05;;;5.90;;
5612;SDS011;63463;53.586;9.928;2023-09-07T08:45:02;6.75;;;5.93;;
5612;SDS011;63463;53.586;9.928;2023-09-07T08:47:31;9.23;;;5.63;;
5612;SDS011;63463;53.586;9.928;2023-09-07T08:49:59;9.00;;;5.25;;
5612;SDS011;63463;53.586;9.928;2023-09-07T08:52:26;7.30;;;5.60;;
5612;SDS011;63463;53.586;9.928;2023-09-07T08:54:52;8.73;;;5.88;;
5612;SDS011;63463;53.586;9.928;2023-09-07T08:57:19;5.72;;;5.22;;
5612;SDS011;63463;53.586;9.928;2023-09-07T08:59:47;5.88;;;5.20;;
5612;SDS011;63463;53.586;9.928;2023-09-07T09:02:13;6.25;;;5.32;;
5612;SDS011;63463;53.586;9.928;2023-09-07T09:04:39;9.02;;;5.32;;
5612;SDS011;63463;53.586;9.928;2023-09-07T09:07:06;5.53;;;5.05;;
5612;SDS011;63463;53.586;9.928;2023-09-07T09:09:32;11.85;;;5.38;;
5612;SDS011;63463;53.586;9.928;2023-09-07T09:12:11;5.20;;;4.72;;
5612;SDS011;63463;53.586;9.928;2023-09-07T09:14:37;9.15;;;5.32;;
5612;SDS011;63463;53.586;9.928;2023-09-07T09:17:04;7.30;;;5.00;;
5612;SDS011;63463;53.586;9.928;2023-09-07T09:19:33;7.18;;;5.75;;
5612;SDS011;63463;53.586;9.928;2023-09-07T09:22:03;10.18;;;5.28;;
5612;SDS011;63463;53.586;9.928;2023-09-07T09:24:32;5.63;;;5.13;;
5612;SDS011;63463;53.586;9.928;2023-09-07T09:26:59;8.20;;;4.88;;
5612;SDS011;63463;53.586;9.928;2023-09-07T09:29:25;6.00;;;5.40;;
5612;SDS011;63463;53.586;9.928;2023-09-07T09:31:52;6.47;;;4.85;;
5612;SDS011;63463;53.586;9.928;2023-09-07T09:34:19;5.40;;;4.85;;
5612;SDS011;63463;53.586;9.928;2023-09-07T09:36:46;4.90;;;4.35;;
5612;SDS011;63463;53.586;9.928;2023-09-07T09:39:21;6.40;;;4.45;;
5612;SDS011;63463;53.586;9.928;2023-09-07T09:41:48;7.30;;;5.07;;
5612;SDS011;63463;53.586;9.928;2023-09-07T09:44:15;6.85;;;4.53;;
5612;SDS011;63463;53.586;9.928;2023-09-07T09:46:42;7.50;;;4.93;;
5612;SDS011;63463;53.586;9.928;2023-09-07T09:49:09;5.25;;;4.40;;
5612;SDS011;63463;53.586;9.928;2023-09-07T09:51:38;6.50;;;4.32;;
5612;SDS011;63463;53.586;9.928;2023-09-07T09:54:05;4.45;;;4.13;;
5612;SDS011;63463;53.586;9.928;2023-09-07T09:56:31;4.15;;;3.85;;
5612;SDS011;63463;53.586;9.928;2023-09-07T09:58:57;7.78;;;4.68;;
5612;SDS011;63463;53.586;9.928;2023-09-07T10:01:23;6.03;;;4.97;;
5612;SDS011;63463;53.586;9.928;2023-09-07T10:03:49;6.88;;;4.75;;
5612;SDS011;63463;53.586;9.928;2023-09-07T10:06:20;6.07;;;5.10;;
5612;SDS011;63463;53.586;9.928;2023-09-07T10:08:53;5.10;;;4.55;;
5612;SDS011;63463;53.586;9.928;2023-09-07T10:11:26;4.60;;;4.13;;
5612;SDS011;63463;53.586;9.928;2023-09-07T10:13:56;13.10;;;5.35;;
5612;SDS011;63463;53.586;9.928;2023-09-07T10:16:23;4.50;;;4.10;;
5612;SDS011;63463;53.586;9.928;2023-09-07T10:18:49;4.38;;;4.07;;
5612;SDS011;63463;53.586;9.928;2023-09-07T10:21:15;4.28;;;3.88;;
5612;SDS011;63463;53.586;9.928;2023-09-07T10:23:41;5.72;;;4.20;;
5612;SDS011;63463;53.586;9.928;2023-09-07T10:26:12;5.43;;;4.47;;
5612;SDS011;63463;53.586;9.928;2023-09-07T10:28:39;4.93;;;3.83;;
5612;SDS011;63463;53.586;9.928;2023-09-07T10:31:06;11.82;;;3.65;;
5612;SDS011;63463;53.586;9.928;2023-09-07T10:33:33;4.38;;;3.97;;
5612;SDS011;63463;53.586;9.928;2023-09-07T10:36:04;4.88;;;3.97;;
5612;SDS011;63463;53.586;9.928;2023-09-07T10:38:33;6.93;;;4.20;;
5612;SDS011;63463;53.586;9.928;2023-09-07T10:41:02;5.32;;;4.10;;
5612;SDS011;63463;53.586;9.928;2023-09-07T10:43:32;4.22;;;3.85;;
5612;SDS011;63463;53.586;9.928;2023-09-07T10:45:59;4.00;;;3.78;;
5612;SDS011;63463;53.586;9.928;2023-09-07T10:48:29;5.85;;;3.60;;
5612;SDS011;63463;53.586;9.928;2023-09-07T10:50:57;4.30;;;3.90;;
5612;SDS011;63463;53.586;9.928;2023-09-07T10:53:30;5.07;;;3.70;;
5612;SDS011;63463;53.586;9.928;2023-09-07T10:55:57;4.20;;;3.90;;
5612;SDS011;63463;53.586;9.928;2023-09-07T10:58:33;4.00;;;3.50;;
5612;SDS011;63463;53.586;9.928;2023-09-07T11:00:59;4.05;;;3.75;;
5612;SDS011;63463;53.586;9.928;2023-09-07T11:03:26;4.25;;;3.75;;
5612;SDS011;63463;53.586;9.928;2023-09-07T11:05:56;3.88;;;3.42;;
5612;SDS011;63463;53.586;9.928;2023-09-07T11:08:23;6.20;;;4.15;;
5612;SDS011;63463;53.586;9.928;2023-09-07T11:10:50;4.47;;;3.42;;
5612;SDS011;63463;53.586;9.928;2023-09-07T11:13:19;3.28;;;3.08;;
5612;SDS011;63463;53.586;9.928;2023-09-07T11:15:45;4.88;;;3.45;;
5612;SDS011;63463;53.586;9.928;2023-09-07T11:18:12;6.28;;;3.45;;
5612;SDS011;63463;53.586;9.928;2023-09-07T11:20:44;3.60;;;3.30;;
5612;SDS011;63463;53.586;9.928;2023-09-07T11:23:35;4.05;;;3.75;;
5612;SDS011;63463;53.586;9.928;2023-09-07T11:26:11;7.50;;;3.10;;
5612;SDS011;63463;53.586;9.928;2023-09-07T11:28:37;6.10;;;3.63;;
5612;SDS011;63463;53.586;9.928;2023-09-07T11:31:03;4.53;;;3.85;;
5612;SDS011;63463;53.586;9.928;2023-09-07T11:33:38;4.20;;;3.90;;
5612;SDS011;63463;53.586;9.928;2023-09-07T11:36:07;4.57;;;3.53;;
5612;SDS011;63463;53.586;9.928;2023-09-07T11:38:36;4.20;;;3.45;;
5612;SDS011;63463;53.586;9.928;2023-09-07T11:41:03;3.63;;;3.33;;
5612;SDS011;63463;53.586;9.928;2023-09-07T11:43:29;3.85;;;3.40;;
5612;SDS011;63463;53.586;9.928;2023-09-07T11:45:55;3.17;;;2.88;;
5612;SDS011;63463;53.586;9.928;2023-09-07T11:48:22;3.10;;;2.90;;
5612;SDS011;63463;53.586;9.928;2023-09-07T11:50:48;5.05;;;3.47;;
5612;SDS011;63463;53.586;9.928;2023-09-07T11:53:14;6.78;;;3.10;;
5612;SDS011;63463;53.586;9.928;2023-09-07T11:55:40;3.92;;;3.00;;
5612;SDS011;63463;53.586;9.928;2023-09-07T11:58:08;4.90;;;3.25;;
5612;SDS011;63463;53.586;9.928;2023-09-07T12:00:34;4.93;;;3.53;;
5612;SDS011;63463;53.586;9.928;2023-09-07T12:03:00;3.30;;;3.00;;
5612;SDS011;63463;53.586;9.928;2023-09-07T12:05:26;4.32;;;3.28;;
5612;SDS011;63463;53.586;9.928;2023-09-07T12:07:52;5.88;;;3.28;;
5612;SDS011;63463;53.586;9.928;2023-09-07T12:10:19;4.47;;;3.10;;
5612;SDS011;63463;53.586;9.928;2023-09-07T12:12:45;3.13;;;2.92;;
5612;SDS011;63463;53.586;9.928;2023-09-07T12:15:12;4.30;;;3.60;;
5612;SDS011;63463;53.586;9.928;2023-09-07T12:17:38;7.32;;;3.45;;
5612;SDS011;63463;53.586;9.928;2023-09-07T12:20:04;4.03;;;3.65;;
5612;SDS011;63463;53.586;9.928;2023-09-07T12:22:34;4.25;;;2.90;;
5612;SDS011;63463;53.586;9.928;2023-09-07T12:25:02;3.75;;;3.45;;
5612;SDS011;63463;53.586;9.928;2023-09-07T12:27:28;6.30;;;3.47;;
5612;SDS011;63463;53.586;9.928;2023-09-07T12:29:54;3.97;;;3.42;;
5612;SDS011;63463;53.586;9.928;2023-09-07T12:32:20;6.13;;;3.60;;
5612;SDS011;63463;53.586;9.928;2023-09-07T12:34:47;7.75;;;4.15;;
5612;SDS011;63463;53.586;9.928;2023-09-07T12:37:18;4.20;;;3.80;;
5612;SDS011;63463;53.586;9.928;2023-09-07T12:39:44;4.22;;;3.55;;
5612;SDS011;63463;53.586;9.928;2023-09-07T12:42:11;3.90;;;3.60;;
5612;SDS011;63463;53.586;9.928;2023-09-07T12:44:39;5.13;;;3.33;;
5612;SDS011;63463;53.586;9.928;2023-09-07T12:47:05;6.07;;;3.70;;
5612;SDS011;63463;53.586;9.928;2023-09-07T12:49:31;4.03;;;3.72;;
5612;SDS011;63463;53.586;9.928;2023-09-07T12:51:57;4.70;;;3.08;;
5612;SDS011;63463;53.586;9.928;2023-09-07T12:54:23;4.95;;;2.70;;
5612;SDS011;63463;53.586;9.928;2023-09-07T12:56:52;3.33;;;3.13;;
5612;SDS011;63463;53.586;9.928;2023-09-07T12:59:18;4.57;;;3.08;;
5612;SDS011;63463;53.586;9.928;2023-09-07T13:01:44;3.38;;;3.08;;
5612;SDS011;63463;53.586;9.928;2023-09-07T13:04:09;11.18;;;3.28;;
5612;SDS011;63463;53.586;9.928;2023-09-07T13:06:38;5.28;;;3.10;;
5612;SDS011;63463;53.586;9.928;2023-09-07T13:09:04;6.68;;;2.88;;
5612;SDS011;63463;53.586;9.928;2023-09-07T13:11:30;3.42;;;3.17;;
5612;SDS011;63463;53.586;9.928;2023-09-07T13:13:56;3.38;;;3.15;;
5612;SDS011;63463;53.586;9.928;2023-09-07T13:16:22;3.47;;;3.05;;
5612;SDS011;63463;53.586;9.928;2023-09-07T13:18:48;5.40;;;3.00;;
5612;SDS011;63463;53.586;9.928;2023-09-07T13:21:14;3.45;;;3.25;;
5612;SDS011;63463;53.586;9.928;2023-09-07T13:23:40;2.97;;;2.72;;
5612;SDS011;63463;53.586;9.928;2023-09-07T13:26:06;6.00;;;3.38;;
5612;SDS011;63463;53.586;9.928;2023-09-07T13:28:32;5.80;;;3.83;;
5612;SDS011;63463;53.586;9.928;2023-09-07T13:31:01;4.40;;;4.10;;
5612;SDS011;63463;53.586;9.928;2023-09-07T13:33:28;7.70;;;3.30;;
5612;SDS011;63463;53.586;9.928;2023-09-07T13:35:55;3.50;;;3.20;;
5612;SDS011;63463;53.586;9.928;2023-09-07T13:38:20;4.15;;;3.35;;
5612;SDS011;63463;53.586;9.928;2023-09-07T13:40:46;3.20;;;3.08;;
5612;SDS011;63463;53.586;9.928;2023-09-07T13:43:12;7.30;;;3.70;;
5612;SDS011;63463;53.586;9.928;2023-09-07T13:45:38;5.20;;;3.95;;
5612;SDS011;63463;53.586;9.928;2023-09-07T13:48:06;3.05;;;2.85;;
5612;SDS011;63463;53.586;9.928;2023-09-07T13:50:32;3.53;;;3.20;;
5612;SDS011;63463;53.586;9.928;2023-09-07T13:52:58;4.90;;;3.60;;
5612;SDS011;63463;53.586;9.928;2023-09-07T13:55:24;4.60;;;4.07;;
5612;SDS011;63463;53.586;9.928;2023-09-07T13:57:50;4.90;;;4.00;;
5612;SDS011;63463;53.586;9.928;2023-09-07T14:00:16;4.57;;;4.07;;
5612;SDS011;63463;53.586;9.928;2023-09-07T14:02:42;3.80;;;3.40;;
5612;SDS011;63463;53.586;9.928;2023-09-07T14:05:08;4.85;;;3.25;;
5612;SDS011;63463;53.586;9.928;2023-09-07T14:07:37;3.50;;;3.22;;
5612;SDS011;63463;53.586;9.928;2023-09-07T14:10:03;8.73;;;3.88;;
5612;SDS011;63463;53.586;9.928;2023-09-07T14:12:29;6.32;;;3.72;;
5612;SDS011;63463;53.586;9.928;2023-09-07T14:14:55;9.88;;;3.55;;
5612;SDS011;63463;53.586;9.928;2023-09-07T14:17:21;6.45;;;4.13;;
5612;SDS011;63463;53.586;9.928;2023-09-07T14:19:53;5.10;;;3.17;;
5612;SDS011;63463;53.586;9.928;2023-09-07T14:22:19;7.43;;;3.15;;
5612;SDS011;63463;53.586;9.928;2023-09-07T14:24:57;3.75;;;3.15;;
5612;SDS011;63463;53.586;9.928;2023-09-07T14:27:22;3.60;;;3.40;;
5612;SDS011;63463;53.586;9.928;2023-09-07T14:29:51;4.35;;;3.67;;
5612;SDS011;63463;53.586;9.928;2023-09-07T14:32:17;3.83;;;3.53;;
5612;SDS011;63463;53.586;9.928;2023-09-07T14:34:45;4.72;;;4.25;;
5612;SDS011;63463;53.586;9.928;2023-09-07T14:37:12;4.13;;;3.72;;
5612;SDS011;63463;53.586;9.928;2023-09-07T14:39:39;3.90;;;3.25;;
5612;SDS011;63463;53.586;9.928;2023-09-07T14:42:14;4.07;;;3.25;;
5612;SDS011;63463;53.586;9.928;2023-09-07T14:44:42;4.50;;;3.53;;
5612;SDS011;63463;53.586;9.928;2023-09-07T14:47:08;6.50;;;3.08;;
5612;SDS011;63463;53.586;9.928;2023-09-07T14:49:35;4.80;;;3.72;;
5612;SDS011;63463;53.586;9.928;2023-09-07T14:52:02;8.05;;;4.25;;